createdAt,value
2023-01-09T00:00:27.202Z,1.13
2023-01-09T00:02:53.987Z,1.00
2023-01-09T00:05:20.765Z,0.80
2023-01-09T00:07:47.539Z,1.50
2023-01-09T00:10:15.507Z,1.00
2023-01-09T00:12:42.469Z,0.80
2023-01-09T00:15:10.182Z,1.67
2023-01-09T00:17:36.882Z,1.17
2023-01-09T00:20:06.035Z,1.17
2023-01-09T00:22:32.865Z,1.20
2023-01-09T00:24:59.566Z,1.00
2023-01-09T00:27:26.291Z,1.20
2023-01-09T00:29:53.030Z,1.20
2023-01-09T00:32:20.512Z,1.20
2023-01-09T00:34:47.745Z,0.90
2023-01-09T00:37:14.579Z,1.07
2023-01-09T00:39:42.282Z,1.03
2023-01-09T00:42:14.681Z,1.00
2023-01-09T00:44:51.167Z,0.80
2023-01-09T00:47:35.747Z,1.17
2023-01-09T00:50:08.936Z,0.60
2023-01-09T00:52:38.011Z,1.10
2023-01-09T00:55:05.541Z,1.07
2023-01-09T00:57:32.750Z,0.60
2023-01-09T01:00:00.529Z,0.70
2023-01-09T01:02:27.535Z,1.10
2023-01-09T01:05:13.520Z,1.17
2023-01-09T01:07:41.135Z,0.90
2023-01-09T01:10:12.613Z,0.47
2023-01-09T01:12:40.238Z,1.07
2023-01-09T01:15:08.126Z,0.60
2023-01-09T01:17:36.727Z,0.93
2023-01-09T01:20:05.636Z,0.50
2023-01-09T01:22:32.585Z,0.60
2023-01-09T01:24:59.454Z,0.50
2023-01-09T01:27:28.041Z,0.90
2023-01-09T01:29:55.209Z,0.50
2023-01-09T01:32:22.072Z,0.50
2023-01-09T01:34:48.792Z,0.70
2023-01-09T01:37:15.570Z,0.60
2023-01-09T01:39:42.463Z,1.00
2023-01-09T01:42:11.708Z,0.50
2023-01-09T01:44:57.199Z,0.50
2023-01-09T01:47:29.512Z,0.60
2023-01-09T01:49:56.774Z,0.63
2023-01-09T01:52:25.109Z,0.73
2023-01-09T01:54:52.617Z,0.77
2023-01-09T01:57:19.545Z,0.70
2023-01-09T01:59:53.640Z,0.80
2023-01-09T02:02:25.036Z,0.63
2023-01-09T02:04:55.631Z,0.73
2023-01-09T02:07:22.395Z,0.90
2023-01-09T02:09:49.821Z,0.80
2023-01-09T02:12:25.488Z,1.00
2023-01-09T02:15:06.752Z,0.83
2023-01-09T02:17:51.817Z,0.77
2023-01-09T02:20:47.763Z,0.80
2023-01-09T02:23:23.192Z,0.73
2023-01-09T02:26:01.940Z,0.70
2023-01-09T02:28:46.608Z,0.70
2023-01-09T02:31:27.354Z,0.80
2023-01-09T02:34:14.142Z,0.77
2023-01-09T02:36:43.659Z,0.80
2023-01-09T02:39:32.742Z,0.93
2023-01-09T02:42:08.425Z,0.97
2023-01-09T02:44:37.023Z,1.50
2023-01-09T02:47:29.427Z,1.30
2023-01-09T02:50:04.035Z,1.20
2023-01-09T02:53:07.915Z,1.73
2023-01-09T02:55:45.750Z,1.70
2023-01-09T02:58:50.818Z,1.60
2023-01-09T03:01:23.581Z,1.50
2023-01-09T03:04:08.405Z,1.80
2023-01-09T03:06:47.978Z,1.87
2023-01-09T03:09:24.425Z,1.20
2023-01-09T03:11:57.584Z,1.50
2023-01-09T03:14:26.228Z,1.90
2023-01-09T03:17:02.487Z,1.17
2023-01-09T03:19:32.466Z,1.40
2023-01-09T03:21:59.786Z,1.30
2023-01-09T03:24:26.658Z,1.77
2023-01-09T03:26:55.171Z,1.57
2023-01-09T03:29:22.060Z,1.50
2023-01-09T03:31:48.923Z,1.03
2023-01-09T03:34:15.656Z,2.00
2023-01-09T03:36:42.444Z,1.97
2023-01-09T03:39:09.224Z,1.93
2023-01-09T03:41:35.961Z,2.80
2023-01-09T03:44:02.662Z,3.23
2023-01-09T03:46:29.387Z,3.93
2023-01-09T03:48:56.148Z,4.30
2023-01-09T03:51:22.861Z,3.80
2023-01-09T03:53:49.650Z,3.93
2023-01-09T03:56:16.489Z,3.00
2023-01-09T03:58:43.228Z,3.33
2023-01-09T04:01:12.870Z,3.30
2023-01-09T04:03:40.140Z,3.10
2023-01-09T04:06:07.537Z,3.10
2023-01-09T04:08:34.517Z,2.70
2023-01-09T04:11:01.352Z,2.70
2023-01-09T04:13:28.102Z,2.80
2023-01-09T04:15:54.907Z,2.03
2023-01-09T04:18:21.647Z,2.60
2023-01-09T04:20:48.943Z,2.70
2023-01-09T04:23:15.998Z,1.97
2023-01-09T04:25:42.773Z,2.40
2023-01-09T04:28:09.873Z,1.70
2023-01-09T04:30:36.660Z,2.43
2023-01-09T04:33:03.493Z,1.60
2023-01-09T04:35:30.307Z,1.90
2023-01-09T04:37:57.041Z,2.20
2023-01-09T04:40:23.779Z,1.80
2023-01-09T04:42:50.612Z,1.50
2023-01-09T04:45:17.376Z,1.70
2023-01-09T04:47:44.862Z,1.80
2023-01-09T04:50:12.889Z,1.43
2023-01-09T04:52:39.861Z,1.57
2023-01-09T04:55:08.213Z,1.30
2023-01-09T04:57:35.953Z,1.80
2023-01-09T05:00:04.201Z,1.43
2023-01-09T05:02:31.005Z,1.40
2023-01-09T05:04:57.801Z,1.90
2023-01-09T05:07:24.615Z,1.67
2023-01-09T05:09:51.362Z,2.10
2023-01-09T05:12:18.236Z,1.40
2023-01-09T05:14:44.983Z,1.20
2023-01-09T05:17:11.725Z,1.50
2023-01-09T05:19:39.069Z,2.07
2023-01-09T05:22:06.042Z,1.60
2023-01-09T05:24:32.859Z,1.60
2023-01-09T05:26:59.680Z,1.57
2023-01-09T05:29:26.420Z,1.80
2023-01-09T05:31:53.180Z,1.40
2023-01-09T05:34:20.797Z,1.70
2023-01-09T05:36:47.607Z,1.40
2023-01-09T05:39:14.512Z,1.20
2023-01-09T05:41:41.234Z,1.07
2023-01-09T05:44:08.026Z,1.53
2023-01-09T05:46:34.749Z,1.53
2023-01-09T05:49:01.505Z,1.20
2023-01-09T05:51:28.494Z,1.20
2023-01-09T05:53:55.219Z,0.80
2023-01-09T05:56:21.996Z,0.93
2023-01-09T05:58:48.792Z,0.70
2023-01-09T06:01:15.894Z,2.10
2023-01-09T06:03:42.648Z,1.40
2023-01-09T06:06:09.407Z,1.67
2023-01-09T06:08:36.147Z,1.43
2023-01-09T06:11:02.907Z,1.30
2023-01-09T06:13:29.659Z,1.43
2023-01-09T06:15:56.411Z,1.57
2023-01-09T06:18:23.237Z,1.13
2023-01-09T06:20:50.024Z,1.70
2023-01-09T06:23:16.771Z,1.53
2023-01-09T06:25:43.542Z,1.10
2023-01-09T06:28:10.358Z,1.37
2023-01-09T06:30:37.097Z,1.30
2023-01-09T06:33:03.880Z,1.33
2023-01-09T06:35:30.706Z,2.17
2023-01-09T06:37:57.498Z,0.80
2023-01-09T06:40:24.234Z,1.53
2023-01-09T06:42:51.079Z,1.00
2023-01-09T06:45:18.126Z,1.47
2023-01-09T06:47:44.950Z,1.10
2023-01-09T06:50:12.273Z,1.60
2023-01-09T06:52:39.996Z,2.30
2023-01-09T06:55:08.133Z,1.83
2023-01-09T06:57:35.201Z,1.07
2023-01-09T07:00:02.063Z,1.60
2023-01-09T07:02:28.854Z,1.10
2023-01-09T07:04:55.752Z,1.13
2023-01-09T07:07:22.687Z,1.37
2023-01-09T07:09:49.797Z,0.90
2023-01-09T07:12:16.596Z,0.97
2023-01-09T07:14:43.376Z,1.57
2023-01-09T07:17:13.510Z,1.50
2023-01-09T07:19:40.420Z,1.30
2023-01-09T07:22:07.340Z,1.60
2023-01-09T07:24:34.140Z,1.50
2023-01-09T07:27:01.074Z,1.47
2023-01-09T07:29:27.826Z,0.93
2023-01-09T07:31:54.537Z,2.70
2023-01-09T07:34:21.318Z,1.57
2023-01-09T07:36:48.859Z,1.40
2023-01-09T07:39:15.635Z,1.27
2023-01-09T07:41:42.401Z,1.43
2023-01-09T07:44:11.090Z,1.37
2023-01-09T07:46:38.058Z,1.83
2023-01-09T07:49:05.168Z,1.47
2023-01-09T07:51:32.274Z,2.60
2023-01-09T07:53:59.209Z,1.47
2023-01-09T07:56:25.946Z,1.20
2023-01-09T07:58:52.679Z,1.23
2023-01-09T08:01:19.959Z,1.50
2023-01-09T08:03:46.785Z,1.00
2023-01-09T08:06:13.677Z,1.10
2023-01-09T08:08:40.413Z,1.73
2023-01-09T08:11:07.202Z,1.27
2023-01-09T08:13:34.009Z,7.73
2023-01-09T08:16:01.016Z,2.73
2023-01-09T08:18:27.870Z,2.47
2023-01-09T08:20:54.617Z,1.87
2023-01-09T08:23:21.365Z,1.90
2023-01-09T08:25:48.094Z,3.07
2023-01-09T08:28:14.908Z,1.00
2023-01-09T08:30:41.710Z,1.40
2023-01-09T08:33:08.517Z,1.23
2023-01-09T08:35:35.454Z,1.50
2023-01-09T08:38:02.883Z,1.20
2023-01-09T08:40:29.791Z,1.57
2023-01-09T08:43:15.128Z,2.70
2023-01-09T08:46:20.406Z,1.37
2023-01-09T08:48:50.351Z,1.53
2023-01-09T08:51:17.072Z,1.13
2023-01-09T08:53:43.786Z,0.90
2023-01-09T08:56:10.554Z,1.23
2023-01-09T08:58:37.332Z,1.60
2023-01-09T09:01:08.304Z,1.27
2023-01-09T09:03:35.091Z,1.53
2023-01-09T09:06:01.931Z,1.87
2023-01-09T09:08:28.710Z,1.83
2023-01-09T09:10:57.438Z,1.53
2023-01-09T09:13:24.252Z,1.33
2023-01-09T09:15:51.129Z,0.77
2023-01-09T09:18:18.022Z,0.80
2023-01-09T09:20:44.874Z,1.13
2023-01-09T09:23:11.723Z,0.93
2023-01-09T09:25:39.423Z,1.00
2023-01-09T09:28:07.407Z,1.20
2023-01-09T09:30:34.252Z,1.07
2023-01-09T09:33:03.592Z,1.03
2023-01-09T09:35:32.445Z,1.10
2023-01-09T09:38:04.700Z,1.10
2023-01-09T09:40:57.092Z,11.77
2023-01-09T09:44:23.487Z,1.70
2023-01-09T09:47:22.866Z,2.10
2023-01-09T09:50:10.973Z,1.30
2023-01-09T09:52:57.526Z,1.30
2023-01-09T09:55:30.997Z,1.40
2023-01-09T09:58:01.046Z,1.13
2023-01-09T10:00:28.992Z,0.90
2023-01-09T10:03:07.825Z,1.77
2023-01-09T10:09:02.893Z,1.27
2023-01-09T10:11:47.355Z,1.50
2023-01-09T10:14:23.626Z,1.70
2023-01-09T10:17:20.061Z,0.93
2023-01-09T10:20:03.142Z,1.50
2023-01-09T10:22:51.478Z,1.40
2023-01-09T10:25:40.819Z,1.00
2023-01-09T10:28:44.891Z,1.47
2023-01-09T10:31:17.443Z,0.90
2023-01-09T10:34:09.255Z,1.23
2023-01-09T10:36:48.007Z,1.03
2023-01-09T10:39:23.620Z,0.90
2023-01-09T10:41:54.672Z,1.00
2023-01-09T10:44:37.180Z,1.40
2023-01-09T10:47:11.590Z,1.30
2023-01-09T10:49:41.997Z,1.47
2023-01-09T10:52:18.108Z,1.07
2023-01-09T10:55:12.800Z,0.90
2023-01-09T10:57:45.061Z,1.20
2023-01-09T11:00:23.592Z,1.20
2023-01-09T11:02:51.847Z,1.20
2023-01-09T11:05:26.723Z,0.90
2023-01-09T11:07:59.650Z,1.40
2023-01-09T11:10:47.210Z,1.17
2023-01-09T11:13:19.381Z,4.37
2023-01-09T11:15:46.904Z,1.47
2023-01-09T11:18:20.082Z,1.30
2023-01-09T11:20:47.344Z,1.47
2023-01-09T11:23:32.827Z,1.30
2023-01-09T11:26:02.111Z,1.10
2023-01-09T11:28:29.228Z,0.90
2023-01-09T11:30:59.992Z,0.87
2023-01-09T11:33:36.246Z,1.00
2023-01-09T11:36:05.338Z,0.90
2023-01-09T11:38:54.413Z,1.50
2023-01-09T11:41:24.633Z,1.10
2023-01-09T11:43:53.542Z,1.20
2023-01-09T11:46:38.433Z,1.30
2023-01-09T11:49:20.954Z,2.07
2023-01-09T11:52:16.187Z,1.43
2023-01-09T11:54:49.145Z,1.07
2023-01-09T11:57:16.402Z,0.93
2023-01-09T11:59:43.188Z,1.33
2023-01-09T12:02:22.367Z,1.33
2023-01-09T12:05:20.944Z,1.00
2023-01-09T12:07:58.855Z,0.87
2023-01-09T12:10:37.530Z,1.30
2023-01-09T12:13:15.659Z,1.80
2023-01-09T12:15:57.386Z,2.00
2023-01-09T12:18:52.140Z,1.53
2023-01-09T12:21:35.591Z,1.80
2023-01-09T12:24:25.231Z,2.30
2023-01-09T12:27:12.993Z,1.80
2023-01-09T12:30:08.332Z,1.33
2023-01-09T12:32:46.112Z,2.50
2023-01-09T12:35:34.383Z,4.10
2023-01-09T12:38:21.854Z,2.40
2023-01-09T12:41:45.321Z,1.27
2023-01-09T12:44:27.374Z,1.70
2023-01-09T12:47:07.185Z,1.87
2023-01-09T12:49:37.517Z,2.47
2023-01-09T12:52:23.446Z,2.40
2023-01-09T12:55:05.111Z,1.57
2023-01-09T12:57:37.673Z,1.57
2023-01-09T13:00:18.905Z,16.23
2023-01-09T13:03:03.607Z,1.90
2023-01-09T13:08:25.718Z,1.80
2023-01-09T13:10:57.542Z,1.53
2023-01-09T13:13:36.302Z,1.63
2023-01-09T13:16:09.794Z,1.50
2023-01-09T13:18:43.872Z,1.53
2023-01-09T13:21:12.698Z,1.40
2023-01-09T13:23:52.414Z,1.20
2023-01-09T13:26:32.775Z,1.83
2023-01-09T13:29:10.260Z,1.70
2023-01-09T13:31:52.467Z,1.23
2023-01-09T13:34:25.747Z,2.57
2023-01-09T13:36:55.230Z,2.40
2023-01-09T13:39:35.489Z,2.20
2023-01-09T13:42:26.155Z,2.10
2023-01-09T13:44:56.044Z,4.57
2023-01-09T13:47:28.513Z,2.13
2023-01-09T13:49:59.997Z,2.50
2023-01-09T13:52:39.367Z,2.00
2023-01-09T13:55:12.153Z,2.30
2023-01-09T13:57:43.878Z,1.87
2023-01-09T14:00:14.610Z,2.80
2023-01-09T14:02:43.115Z,3.90
2023-01-09T14:08:20.309Z,2.73
2023-01-09T14:10:49.790Z,1.83
2023-01-09T14:13:23.984Z,2.73
2023-01-09T14:15:53.512Z,2.50
2023-01-09T14:18:24.880Z,1.73
2023-01-09T14:21:01.289Z,1.83
2023-01-09T14:23:50.939Z,1.70
2023-01-09T14:26:21.707Z,2.60
2023-01-09T14:28:48.557Z,2.20
2023-01-09T14:31:32.867Z,2.33
2023-01-09T14:34:35.479Z,2.00
2023-01-09T14:37:03.048Z,3.03
2023-01-09T14:39:32.029Z,2.30
2023-01-09T14:42:06.603Z,2.17
2023-01-09T14:45:11.312Z,2.10
2023-01-09T14:47:43.129Z,1.57
2023-01-09T14:50:34.571Z,2.00
2023-01-09T14:53:22.599Z,2.17
2023-01-09T14:55:57.752Z,1.80
2023-01-09T14:58:35.124Z,2.37
2023-01-09T15:01:10.964Z,2.40
2023-01-09T15:03:41.952Z,2.07
2023-01-09T15:06:20.121Z,2.10
2023-01-09T15:08:49.934Z,2.17
2023-01-09T15:11:16.779Z,3.03
2023-01-09T15:13:47.901Z,3.63
2023-01-09T15:16:25.495Z,4.97
2023-01-09T15:19:05.153Z,7.00
2023-01-09T15:21:32.628Z,4.07
2023-01-09T15:24:27.117Z,3.60
2023-01-09T15:26:56.364Z,3.73
2023-01-09T15:29:23.292Z,4.27
2023-01-09T15:32:18.388Z,4.00
2023-01-09T15:34:46.528Z,3.30
2023-01-09T15:37:40.719Z,3.70
2023-01-09T15:40:17.350Z,8.00
2023-01-09T15:43:01.154Z,4.73
2023-01-09T15:45:35.222Z,8.90
2023-01-09T15:48:32.998Z,4.87
2023-01-09T15:51:12.005Z,4.07
2023-01-09T15:53:41.040Z,3.87
2023-01-09T15:56:16.410Z,4.37
2023-01-09T15:58:48.187Z,3.60
2023-01-09T16:01:23.660Z,3.40
2023-01-09T16:03:50.744Z,2.80
2023-01-09T16:06:26.196Z,4.23
2023-01-09T16:08:56.197Z,6.20
2023-01-09T16:11:27.286Z,4.30
2023-01-09T16:13:56.778Z,3.73
2023-01-09T16:16:32.646Z,4.60
2023-01-09T16:18:59.810Z,4.87
2023-01-09T16:21:31.211Z,5.70
2023-01-09T16:24:08.089Z,5.10
2023-01-09T16:26:35.132Z,4.50
2023-01-09T16:29:37.120Z,4.60
2023-01-09T16:32:06.800Z,4.30
2023-01-09T16:34:35.345Z,5.10
2023-01-09T16:37:04.246Z,5.30
2023-01-09T16:39:31.122Z,5.57
2023-01-09T16:42:16.800Z,5.23
2023-01-09T16:44:43.528Z,4.80
2023-01-09T16:47:12.342Z,5.47
2023-01-09T16:49:39.082Z,4.60
2023-01-09T16:52:18.101Z,6.10
2023-01-09T16:54:46.945Z,5.07
2023-01-09T16:57:18.804Z,5.50
2023-01-09T16:59:45.978Z,7.13
2023-01-09T17:02:17.977Z,6.50
2023-01-09T17:04:45.393Z,5.43
2023-01-09T17:07:16.554Z,5.63
2023-01-09T17:09:44.086Z,6.90
2023-01-09T17:12:21.897Z,6.93
2023-01-09T17:14:49.501Z,5.40
2023-01-09T17:17:17.758Z,4.47
2023-01-09T17:19:46.812Z,4.70
2023-01-09T17:22:14.436Z,3.83
2023-01-09T17:25:00.056Z,4.00
2023-01-09T17:27:50.194Z,4.23
2023-01-09T17:30:19.469Z,4.00
2023-01-09T17:32:47.030Z,4.70
2023-01-09T17:35:15.374Z,3.73
2023-01-09T17:37:42.799Z,4.30
2023-01-09T17:40:28.596Z,4.17
2023-01-09T17:42:55.372Z,5.23
2023-01-09T17:45:22.158Z,4.83
2023-01-09T17:47:48.902Z,4.20
2023-01-09T17:50:20.853Z,5.50
2023-01-09T17:52:48.905Z,5.30
2023-01-09T17:55:15.803Z,5.87
2023-01-09T17:57:44.418Z,5.27
2023-01-09T18:00:36.761Z,6.50
2023-01-09T18:03:05.103Z,8.87
2023-01-09T18:08:12.808Z,5.60
2023-01-09T18:10:43.939Z,6.40
2023-01-09T18:13:11.463Z,5.97
2023-01-09T18:15:41.388Z,7.90
2023-01-09T18:18:08.135Z,5.10
2023-01-09T18:20:38.160Z,5.20
2023-01-09T18:23:05.286Z,5.40
2023-01-09T18:25:32.032Z,6.33
2023-01-09T18:28:00.661Z,5.77
2023-01-09T18:30:27.878Z,5.57
2023-01-09T18:32:54.708Z,6.53
2023-01-09T18:35:21.482Z,5.30
2023-01-09T18:37:48.439Z,5.80
2023-01-09T18:40:15.467Z,5.53
2023-01-09T18:42:43.006Z,5.77
2023-01-09T18:45:10.729Z,5.70
2023-01-09T18:47:37.500Z,6.20
2023-01-09T18:50:04.532Z,6.57
2023-01-09T18:52:31.451Z,6.73
2023-01-09T18:54:58.189Z,5.97
2023-01-09T18:57:25.496Z,6.50
2023-01-09T18:59:52.242Z,6.60
2023-01-09T19:02:26.237Z,7.20
2023-01-09T19:04:53.082Z,7.23
2023-01-09T19:07:19.823Z,7.80
2023-01-09T19:09:47.064Z,8.37
2023-01-09T19:12:13.964Z,9.77
2023-01-09T19:14:40.769Z,8.20
2023-01-09T19:17:07.741Z,8.73
2023-01-09T19:19:34.596Z,9.10
2023-01-09T19:22:01.459Z,8.90
2023-01-09T19:24:28.339Z,9.60
2023-01-09T19:26:55.074Z,9.60
2023-01-09T19:29:21.837Z,8.63
2023-01-09T19:31:48.838Z,9.03
2023-01-09T19:34:16.166Z,10.10
2023-01-09T19:36:43.874Z,10.07
2023-01-09T19:39:11.520Z,11.23
2023-01-09T19:41:38.377Z,9.83
2023-01-09T19:44:05.396Z,9.23
2023-01-09T19:46:36.242Z,8.77
2023-01-09T19:49:04.882Z,9.30
2023-01-09T19:51:32.938Z,9.20
2023-01-09T19:56:32.357Z,8.73
2023-01-09T19:59:01.536Z,8.90
2023-01-09T20:01:31.243Z,7.70
2023-01-09T20:04:03.319Z,7.77
2023-01-09T20:06:30.794Z,8.27
2023-01-09T20:08:59.972Z,5.00
2023-01-09T20:11:29.475Z,5.30
2023-01-09T20:13:56.732Z,4.93
2023-01-09T20:16:30.296Z,5.13
2023-01-09T20:18:59.075Z,3.87
2023-01-09T20:21:27.500Z,4.10
2023-01-09T20:23:58.352Z,4.43
2023-01-09T20:26:25.931Z,3.90
2023-01-09T20:28:52.999Z,4.13
2023-01-09T20:31:22.231Z,3.60
2023-01-09T20:33:51.171Z,3.87
2023-01-09T20:36:21.628Z,3.10
2023-01-09T20:38:48.749Z,2.93
2023-01-09T20:41:23.010Z,4.00
2023-01-09T20:43:50.440Z,3.40
2023-01-09T20:46:17.702Z,3.77
2023-01-09T20:48:44.538Z,3.60
2023-01-09T20:51:12.825Z,4.10
2023-01-09T20:53:45.054Z,2.83
2023-01-09T20:56:11.913Z,3.87
2023-01-09T20:58:38.859Z,4.63
2023-01-09T21:01:08.388Z,4.70
2023-01-09T21:03:35.237Z,5.00
2023-01-09T21:06:10.886Z,4.70
2023-01-09T21:08:38.224Z,4.10
2023-01-09T21:11:05.795Z,3.83
2023-01-09T21:13:32.644Z,5.40
2023-01-09T21:16:04.622Z,5.07
2023-01-09T21:18:31.584Z,4.93
2023-01-09T21:21:01.960Z,5.47
2023-01-09T21:23:28.700Z,6.33
2023-01-09T21:25:55.597Z,6.33
2023-01-09T21:28:23.817Z,8.07
2023-01-09T21:30:50.574Z,6.17
2023-01-09T21:33:23.629Z,6.60
2023-01-09T21:35:58.380Z,7.33
2023-01-09T21:38:26.515Z,7.40
2023-01-09T21:40:54.214Z,8.07
2023-01-09T21:43:47.821Z,9.83
2023-01-09T21:46:37.533Z,8.37
2023-01-09T21:49:05.576Z,8.37
2023-01-09T21:51:36.519Z,9.60
2023-01-09T21:54:03.378Z,8.63
2023-01-09T21:56:30.100Z,12.57
2023-01-09T21:58:56.836Z,9.37
2023-01-09T22:01:23.630Z,10.10
2023-01-09T22:03:53.158Z,8.73
2023-01-09T22:06:19.967Z,8.50
2023-01-09T22:08:46.728Z,8.83
2023-01-09T22:11:16.045Z,9.60
2023-01-09T22:13:47.356Z,9.30
2023-01-09T22:16:14.115Z,8.20
2023-01-09T22:18:40.906Z,8.37
2023-01-09T22:21:07.660Z,7.37
2023-01-09T22:23:34.515Z,5.77
2023-01-09T22:26:11.181Z,6.40
2023-01-09T22:28:38.079Z,5.37
2023-01-09T22:31:14.133Z,5.30
2023-01-09T22:33:40.967Z,5.27
2023-01-09T22:36:10.062Z,6.03
2023-01-09T22:38:37.327Z,4.77
2023-01-09T22:41:04.832Z,6.17
2023-01-09T22:43:32.023Z,5.43
2023-01-09T22:46:03.072Z,5.13
2023-01-09T22:48:31.948Z,5.93
2023-01-09T22:51:02.935Z,4.50
2023-01-09T22:53:30.752Z,6.13
2023-01-09T22:55:59.109Z,5.50
2023-01-09T22:58:27.292Z,5.50
2023-01-09T23:00:54.607Z,4.67
2023-01-09T23:03:21.683Z,5.60
2023-01-09T23:05:48.696Z,5.80
2023-01-09T23:08:15.987Z,5.53
2023-01-09T23:10:43.041Z,4.93
2023-01-09T23:13:09.808Z,5.90
2023-01-09T23:15:36.624Z,5.03
2023-01-09T23:18:03.440Z,5.20
2023-01-09T23:20:30.190Z,4.97
2023-01-09T23:22:58.991Z,4.40
2023-01-09T23:25:25.890Z,4.87
2023-01-09T23:27:52.846Z,4.67
2023-01-09T23:30:19.622Z,4.40
2023-01-09T23:32:46.379Z,4.17
2023-01-09T23:35:16.103Z,5.10
2023-01-09T23:37:43.811Z,4.17
2023-01-09T23:40:12.038Z,5.03
2023-01-09T23:42:58.505Z,4.63
2023-01-09T23:45:25.387Z,4.27
2023-01-09T23:47:52.146Z,4.57
2023-01-09T23:50:19.041Z,4.03
2023-01-09T23:52:45.846Z,3.97
2023-01-09T23:55:12.731Z,4.10
2023-01-09T23:57:39.503Z,4.07
